Pagrindinis puslapis
METAR-TAF:

METAR-TAF

Oro uostai :

Ostinas, Teksasas, Jungtinės Amerikos Valstijos

platuma: 30-24-00N, ilguma: 097-34-25W, Aukštis: 189 m

Dabartinis oras

Ataskaita buvo paskelbta 30 minutes, ne 02:35 UTC
Ramus vėjas
Temperatūra 21°C
Drėgmė 88%
Slėgis 1012 hPa
Matomumas: 16.1 km
Išsisklaidę debesys ne aukštis 2100 ft

METAR: KEDC 170235Z AUTO 00000KT 10SM SCT021 21/19 A2989 RMK AO2

Laikas: 21:05 (03:05 UTC)


TAF: trūkstamas

Orai ataskaitas ir orų prognozės (METAR, TAF).

turimą stotys yra geltonos ir raudonos taškus žemėlapyje.

Perkelti pele per norėdami pamatyti stoties vardą.

Tada spustelėkite, norėdami matyti oro stebėjimo ir prognozės.

Norėdami pakeisti žemėlapį: spustelėkite ant žalios mygtukų su juodo kryžiaus žemyn,; žalią mygtuką su brūkšneliu, jei norite nutolinti; arba žalių rodyklių gretimoms žemėlapius.


METAR-TAF: